Bei Facebook empfehlenBei Twitter postenGoogle plusPinterest

Das Wetter im Erzgebirge am 28.06.2015

Wetter und Klima am 28.06.2015 Holzhau im Erzgebirge (630m ü.NN)
Letzte gemessene Temperatur und Uhrzeit der Messung23:45:00 Uhr9.20 °C
Temperatur (Maximum / Höchstwert) und Uhrzeit der Messung17:00:00 Uhr21.20 °C
Temperatur (Minimum / Tiefstwert) und Uhrzeit der Messung23:45:009.20 °C
Errechneter Absolutwert der Temperaturschwankungen zwischen Tmin und Tmax des Tages12.00 K
Errechnete Tagesmitteltemperatur15.05833 °C
Gesamt - Niederschlag des Tages (in flüssiger Form)0.00 Liter / m²
Luftdruck (Maximum / Höchstwert) und Zeitpunkt der Messung22:30:00 Uhr1020.70 hPa
Luftdruck (Minimum / Tiefstwert) und Zeitpunkt der Messung00:00:00 Uhr1016.40 hPa
Errechneter Absolutwert der Luftdruckschwankungen des Tages4.30 hPa
Höchste gemessene Windgeschwindigkeit und Uhrzeit der Messung11:00:00 Uhr10.80 km/h
Errechnete Windhäufigkeit in Relation zu den Messwerten des Tages15.62500 %
Niedrigste Windkühle (Windchill) und Zeitpunkt der Messung23:45:00 Uhr9.20 °C
Taupunkt (Maximum / Höchstwert) und Uhrzeit der Messung01:15:00 Uhr12.20 °C
Taupunkt (Minimum / Tiefstwert) und Uhrzeit der Messung22:30:005.90 °C
Anzahl der automatisch eingelesenen Messwerte 96

Detaillierte Wetter- und Klima- Messwerte für den 28.06.2015 in Holzhau im Erzgebirge (630m ü.NN)
ZeitTemperaturLuftdruckRel. LuftfeuchteWindWindrichtungWindchillTaupunktNiederschlag l/m²
23:45:009.20 °C1020.50 hPa84.00 %6.60 °C 
23:30:009.20 °C1020.50 hPa83.00 %6.50 °C 
23:15:009.30 °C1020.50 hPa83.00 %6.60 °C 
23:00:009.30 °C1020.60 hPa82.00 %6.40 °C 
22:45:009.20 °C1020.50 hPa81.00 %6.10 °C 
22:30:009.40 °C1020.70 hPa79.00 %5.90 °C 
22:15:009.80 °C1020.60 hPa78.00 %6.20 °C 
22:00:0010.30 °C1020.60 hPa76.00 %6.30 °C 
21:45:0011.10 °C1020.50 hPa75.00 %6.80 °C 
21:30:0011.90 °C1020.60 hPa72.00 %7.00 °C 
21:15:0012.80 °C1020.30 hPa71.00 %7.70 °C 
21:00:0013.80 °C1020.20 hPa68.00 %8.00 °C 
20:45:0014.40 °C1020.40 hPa66.00 %8.10 °C 
20:30:0015.30 °C1020.20 hPa63.00 %8.30 °C 
20:15:0015.90 °C1020.30 hPa61.00 %8.40 °C 
20:00:0016.60 °C1020.20 hPa58.00 %8.30 °C 
19:45:0017.40 °C1020.00 hPa56.00 %8.50 °C 
19:30:0018.10 °C1020.00 hPa55.00 %8.90 °C 
19:15:0019.20 °C1019.80 hPa52.00 %9.10 °C 
19:00:0019.90 °C1019.60 hPa52.00 %6.12 km/hWNW20.80 °C9.80 °C 
18:45:0019.40 °C1019.60 hPa53.00 %9.60 °C 
18:30:0019.30 °C1019.60 hPa53.00 %9.50 °C 
18:15:0019.50 °C1019.50 hPa52.00 %2.88 km/hNNW19.50 °C9.40 °C 
18:00:0019.70 °C1019.60 hPa51.00 %9.30 °C 
17:45:0020.40 °C1019.60 hPa49.00 %2.16 km/hSSW20.40 °C9.30 °C 
17:30:0020.60 °C1019.50 hPa50.00 %9.80 °C 
17:15:0020.30 °C1019.50 hPa52.00 %10.10 °C 
17:00:0021.20 °C1019.70 hPa51.00 %10.70 °C 
16:45:0020.50 °C1019.50 hPa52.00 %9.00 km/hSSW21.30 °C10.30 °C 
16:30:0020.40 °C1019.70 hPa52.00 %10.44 km/hSW21.00 °C10.20 °C 
16:15:0019.00 °C1019.70 hPa56.00 %4.68 km/hWNW19.00 °C10.00 °C 
16:00:0019.80 °C1019.80 hPa52.00 %9.70 °C 
15:45:0020.90 °C1019.80 hPa51.00 %10.08 km/hSW21.60 °C10.40 °C 
15:30:0021.10 °C1019.70 hPa51.00 %10.60 °C 
15:15:0021.10 °C1019.60 hPa52.00 %10.90 °C 
15:00:0020.90 °C1019.70 hPa53.00 %11.00 °C 
14:45:0020.10 °C1019.80 hPa54.00 %10.50 °C 
14:30:0019.40 °C1019.80 hPa57.00 %10.70 °C 
14:15:0018.70 °C1019.80 hPa56.00 %9.80 °C 
14:00:0018.90 °C1019.80 hPa56.00 %9.90 °C 
13:45:0019.30 °C1019.60 hPa57.00 %10.60 °C 
13:30:0018.80 °C1019.80 hPa57.00 %10.10 °C 
13:15:0018.90 °C1019.70 hPa57.00 %10.20 °C 
13:00:0019.30 °C1019.60 hPa57.00 %10.60 °C 
12:45:0019.00 °C1019.80 hPa59.00 %2.88 km/hNW19.00 °C10.80 °C 
12:30:0018.50 °C1019.70 hPa60.00 %10.60 °C 
12:15:0017.80 °C1019.70 hPa62.00 %5.40 km/hNNW18.50 °C10.40 °C 
12:00:0017.80 °C1019.50 hPa62.00 %10.40 °C 
11:45:0017.50 °C1019.60 hPa64.00 %10.60 °C 
11:30:0016.90 °C1019.60 hPa68.00 %2.52 km/hW16.90 °C11.00 °C 
11:15:0016.40 °C1019.40 hPa69.00 %10.70 °C 
11:00:0015.80 °C1019.40 hPa68.00 %10.80 km/hNNW15.50 °C9.90 °C 
10:45:0015.80 °C1019.20 hPa69.00 %10.10 °C 
10:30:0015.90 °C1019.30 hPa72.00 %10.90 °C 
10:15:0015.20 °C1019.30 hPa72.00 %2.88 km/hW15.20 °C10.20 °C 
10:00:0014.90 °C1019.10 hPa74.00 %7.20 km/hNNW14.90 °C10.30 °C 
09:45:0014.90 °C1019.20 hPa74.00 %10.30 °C 
09:30:0014.40 °C1018.90 hPa74.00 %9.80 °C 
09:15:0014.20 °C1019.00 hPa72.00 %9.20 °C 
09:00:0014.50 °C1019.10 hPa72.00 %6.12 km/hWNW14.60 °C9.50 °C 
08:45:0014.40 °C1018.80 hPa73.00 %9.60 °C 
08:30:0014.60 °C1018.80 hPa72.00 %9.60 °C 
08:15:0014.60 °C1018.50 hPa72.00 %9.60 °C 
08:00:0014.40 °C1018.60 hPa73.00 %9.60 °C 
07:45:0014.60 °C1018.40 hPa73.00 %9.80 °C 
07:30:0014.10 °C1018.30 hPa78.00 %10.30 °C 
07:15:0012.30 °C1018.20 hPa86.00 %10.00 °C 
07:00:0010.90 °C1018.20 hPa88.00 %9.00 °C 
06:45:0010.80 °C1018.20 hPa89.00 %9.10 °C 
06:30:0010.40 °C1018.00 hPa91.00 %9.00 °C 
06:15:0010.00 °C1018.00 hPa90.00 %8.40 °C 
06:00:0010.00 °C1018.00 hPa90.00 %8.40 °C 
05:45:0010.20 °C1018.00 hPa89.00 %8.50 °C 
05:30:0010.30 °C1017.90 hPa90.00 %8.70 °C 
05:15:0010.10 °C1018.10 hPa89.00 %8.40 °C 
05:00:009.80 °C1018.10 hPa88.00 %7.90 °C 
04:45:0010.10 °C1018.20 hPa88.00 %8.20 °C 
04:30:0010.60 °C1018.10 hPa88.00 %8.70 °C 
04:15:0011.00 °C1018.00 hPa88.00 %9.10 °C 
04:00:0011.30 °C1017.90 hPa89.00 %9.60 °C 
03:45:0011.80 °C1017.70 hPa89.00 %10.00 °C 
03:30:0012.30 °C1017.60 hPa89.00 %10.50 °C 
03:15:0012.60 °C1017.60 hPa90.00 %11.00 °C 
03:00:0012.90 °C1017.40 hPa90.00 %11.30 °C 
02:45:0013.10 °C1017.20 hPa90.00 %11.50 °C 
02:30:0013.30 °C1016.90 hPa90.00 %11.70 °C 
02:15:0013.40 °C1016.90 hPa91.00 %12.00 °C 
02:00:0013.50 °C1016.80 hPa91.00 %12.10 °C 
01:45:0013.50 °C1016.90 hPa91.00 %12.10 °C 
01:30:0013.50 °C1017.00 hPa91.00 %12.10 °C 
01:15:0013.60 °C1016.80 hPa91.00 %12.20 °C 
01:00:0013.60 °C1016.70 hPa90.00 %5.04 km/hNW13.80 °C12.00 °C 
00:45:0013.60 °C1016.80 hPa90.00 %12.00 °C 
00:30:0013.60 °C1016.70 hPa90.00 %12.00 °C 
00:15:0013.80 °C1016.50 hPa89.00 %12.00 °C 
00:00:0013.90 °C1016.40 hPa89.00 %12.10 °C 

Permanenter Link zu dieser Seite: Wetter im Erzgebirge am 28.06.2015
Performance-Info: Die Erstellung der Seite / Statistik(en) / Tabelle(n) erforderte 5 Datenbankserver-Abfrage(n) und dauerte 102 Millisekunden. (Dieser Messwert ist von der Gesamt-Auslastung des Servers abhängig.)
Erzgebirge - Wetter | Erzgebirge - Wetter (Mobilgeräte) | Komplette Klimadatenbank